sensor_id;sensor_type;location;lat;lon;timestamp;P1;durP1;ratioP1;P2;durP2;ratioP2
75512;SDS011;64090;49.770;18.760;2023-02-13T00:01:34;39.70;;;24.60;;
75512;SDS011;64090;49.770;18.760;2023-02-13T00:04:37;34.10;;;18.20;;
75512;SDS011;64090;49.770;18.760;2023-02-13T00:07:41;22.70;;;11.50;;
75512;SDS011;64090;49.770;18.760;2023-02-13T00:10:44;24.40;;;11.40;;
75512;SDS011;64090;49.770;18.760;2023-02-13T00:13:49;22.00;;;11.00;;
75512;SDS011;64090;49.770;18.760;2023-02-13T00:16:52;24.90;;;13.30;;
75512;SDS011;64090;49.770;18.760;2023-02-13T00:19:55;29.80;;;13.80;;
75512;SDS011;64090;49.770;18.760;2023-02-13T00:22:58;24.50;;;12.90;;
75512;SDS011;64090;49.770;18.760;2023-02-13T00:26:06;31.70;;;16.20;;
75512;SDS011;64090;49.770;18.760;2023-02-13T00:29:11;29.40;;;14.10;;
75512;SDS011;64090;49.770;18.760;2023-02-13T00:32:14;27.00;;;15.40;;
75512;SDS011;64090;49.770;18.760;2023-02-13T00:35:18;35.60;;;16.50;;
75512;SDS011;64090;49.770;18.760;2023-02-13T00:38:21;34.00;;;17.80;;
75512;SDS011;64090;49.770;18.760;2023-02-13T00:41:24;33.70;;;16.00;;
75512;SDS011;64090;49.770;18.760;2023-02-13T00:44:28;28.40;;;14.30;;
75512;SDS011;64090;49.770;18.760;2023-02-13T00:47:31;30.30;;;18.20;;
75512;SDS011;64090;49.770;18.760;2023-02-13T00:50:34;27.10;;;14.80;;
75512;SDS011;64090;49.770;18.760;2023-02-13T00:53:37;28.40;;;12.60;;
75512;SDS011;64090;49.770;18.760;2023-02-13T00:56:41;28.50;;;13.20;;
75512;SDS011;64090;49.770;18.760;2023-02-13T00:59:44;25.50;;;14.80;;
75512;SDS011;64090;49.770;18.760;2023-02-13T01:02:47;26.90;;;12.70;;
75512;SDS011;64090;49.770;18.760;2023-02-13T01:05:54;28.00;;;14.10;;
75512;SDS011;64090;49.770;18.760;2023-02-13T01:08:58;29.20;;;15.20;;
75512;SDS011;64090;49.770;18.760;2023-02-13T01:12:01;26.70;;;14.60;;
75512;SDS011;64090;49.770;18.760;2023-02-13T01:15:06;29.80;;;14.10;;
75512;SDS011;64090;49.770;18.760;2023-02-13T01:18:15;29.10;;;15.10;;
75512;SDS011;64090;49.770;18.760;2023-02-13T01:21:20;30.30;;;13.20;;
75512;SDS011;64090;49.770;18.760;2023-02-13T01:24:25;27.70;;;13.20;;
75512;SDS011;64090;49.770;18.760;2023-02-13T01:27:31;28.60;;;12.70;;
75512;SDS011;64090;49.770;18.760;2023-02-13T01:30:34;28.00;;;13.00;;
75512;SDS011;64090;49.770;18.760;2023-02-13T01:33:38;25.30;;;13.10;;
75512;SDS011;64090;49.770;18.760;2023-02-13T01:36:42;28.90;;;13.10;;
75512;SDS011;64090;49.770;18.760;2023-02-13T01:39:45;26.50;;;12.30;;
75512;SDS011;64090;49.770;18.760;2023-02-13T01:42:48;27.90;;;12.30;;
75512;SDS011;64090;49.770;18.760;2023-02-13T01:45:53;28.40;;;13.90;;
75512;SDS011;64090;49.770;18.760;2023-02-13T01:49:02;28.90;;;13.00;;
75512;SDS011;64090;49.770;18.760;2023-02-13T01:52:16;29.10;;;12.80;;
75512;SDS011;64090;49.770;18.760;2023-02-13T01:55:20;27.20;;;13.60;;
75512;SDS011;64090;49.770;18.760;2023-02-13T01:58:25;25.90;;;12.80;;
75512;SDS011;64090;49.770;18.760;2023-02-13T02:01:33;26.30;;;13.10;;
75512;SDS011;64090;49.770;18.760;2023-02-13T02:04:37;25.20;;;14.60;;
75512;SDS011;64090;49.770;18.760;2023-02-13T02:07:43;27.40;;;14.40;;
75512;SDS011;64090;49.770;18.760;2023-02-13T02:10:47;22.40;;;12.00;;
75512;SDS011;64090;49.770;18.760;2023-02-13T02:13:50;29.20;;;12.70;;
75512;SDS011;64090;49.770;18.760;2023-02-13T02:16:55;23.80;;;10.30;;
75512;SDS011;64090;49.770;18.760;2023-02-13T02:23:30;25.20;;;13.40;;
75512;SDS011;64090;49.770;18.760;2023-02-13T02:27:04;13.30;;;6.20;;
75512;SDS011;64090;49.770;18.760;2023-02-13T02:41:23;35.90;;;16.70;;
75512;SDS011;64090;49.770;18.760;2023-02-13T02:44:53;31.20;;;15.40;;
75512;SDS011;64090;49.770;18.760;2023-02-13T02:48:17;33.10;;;17.60;;
75512;SDS011;64090;49.770;18.760;2023-02-13T02:55:11;30.60;;;13.70;;
75512;SDS011;64090;49.770;18.760;2023-02-13T02:58:22;35.60;;;18.60;;
75512;SDS011;64090;49.770;18.760;2023-02-13T03:01:52;28.60;;;12.90;;
75512;SDS011;64090;49.770;18.760;2023-02-13T03:05:23;43.00;;;18.50;;
75512;SDS011;64090;49.770;18.760;2023-02-13T03:09:04;43.20;;;21.20;;
75512;SDS011;64090;49.770;18.760;2023-02-13T03:13:05;38.20;;;18.10;;
75512;SDS011;64090;49.770;18.760;2023-02-13T03:16:25;37.50;;;16.70;;
75512;SDS011;64090;49.770;18.760;2023-02-13T03:23:22;17.40;;;8.00;;
75512;SDS011;64090;49.770;18.760;2023-02-13T03:26:37;22.00;;;9.90;;
75512;SDS011;64090;49.770;18.760;2023-02-13T03:29:55;39.20;;;21.40;;
75512;SDS011;64090;49.770;18.760;2023-02-13T03:33:16;36.60;;;21.40;;
75512;SDS011;64090;49.770;18.760;2023-02-13T03:36:47;38.70;;;18.00;;
75512;SDS011;64090;49.770;18.760;2023-02-13T03:43:28;36.10;;;17.20;;
75512;SDS011;64090;49.770;18.760;2023-02-13T03:46:41;34.80;;;18.60;;
75512;SDS011;64090;49.770;18.760;2023-02-13T03:49:49;32.40;;;16.30;;
75512;SDS011;64090;49.770;18.760;2023-02-13T03:53:10;26.90;;;14.20;;
75512;SDS011;64090;49.770;18.760;2023-02-13T03:56:15;28.90;;;14.70;;
75512;SDS011;64090;49.770;18.760;2023-02-13T03:59:40;26.80;;;13.40;;
75512;SDS011;64090;49.770;18.760;2023-02-13T04:02:47;28.80;;;14.80;;
75512;SDS011;64090;49.770;18.760;2023-02-13T04:06:00;32.40;;;15.90;;
75512;SDS011;64090;49.770;18.760;2023-02-13T04:09:15;30.60;;;15.70;;
75512;SDS011;64090;49.770;18.760;2023-02-13T04:12:20;24.40;;;11.90;;
75512;SDS011;64090;49.770;18.760;2023-02-13T04:15:35;23.30;;;11.10;;
75512;SDS011;64090;49.770;18.760;2023-02-13T04:18:51;28.90;;;14.60;;
75512;SDS011;64090;49.770;18.760;2023-02-13T04:21:57;25.10;;;13.80;;
75512;SDS011;64090;49.770;18.760;2023-02-13T04:28:06;20.80;;;12.40;;
75512;SDS011;64090;49.770;18.760;2023-02-13T04:31:09;23.60;;;11.90;;
75512;SDS011;64090;49.770;18.760;2023-02-13T04:34:12;22.10;;;10.80;;
75512;SDS011;64090;49.770;18.760;2023-02-13T04:37:15;25.60;;;13.10;;
75512;SDS011;64090;49.770;18.760;2023-02-13T04:40:18;25.80;;;11.70;;
75512;SDS011;64090;49.770;18.760;2023-02-13T04:43:21;28.80;;;14.80;;
75512;SDS011;64090;49.770;18.760;2023-02-13T04:46:24;25.30;;;11.80;;
75512;SDS011;64090;49.770;18.760;2023-02-13T04:49:28;21.20;;;10.60;;
75512;SDS011;64090;49.770;18.760;2023-02-13T04:52:31;31.10;;;15.50;;
75512;SDS011;64090;49.770;18.760;2023-02-13T04:55:34;15.00;;;8.00;;
75512;SDS011;64090;49.770;18.760;2023-02-13T04:58:37;24.90;;;11.90;;
75512;SDS011;64090;49.770;18.760;2023-02-13T05:01:40;22.50;;;11.60;;
75512;SDS011;64090;49.770;18.760;2023-02-13T05:04:44;21.30;;;10.90;;
75512;SDS011;64090;49.770;18.760;2023-02-13T05:07:47;22.30;;;11.30;;
75512;SDS011;64090;49.770;18.760;2023-02-13T05:10:50;24.60;;;9.80;;
75512;SDS011;64090;49.770;18.760;2023-02-13T05:13:53;29.10;;;12.20;;
75512;SDS011;64090;49.770;18.760;2023-02-13T05:16:56;26.40;;;12.40;;
75512;SDS011;64090;49.770;18.760;2023-02-13T05:20:01;25.90;;;10.70;;
75512;SDS011;64090;49.770;18.760;2023-02-13T05:23:04;17.90;;;7.60;;
75512;SDS011;64090;49.770;18.760;2023-02-13T05:26:25;22.50;;;10.90;;
75512;SDS011;64090;49.770;18.760;2023-02-13T05:29:30;19.90;;;10.60;;
75512;SDS011;64090;49.770;18.760;2023-02-13T05:32:34;22.20;;;11.40;;
75512;SDS011;64090;49.770;18.760;2023-02-13T05:35:38;18.60;;;8.70;;
75512;SDS011;64090;49.770;18.760;2023-02-13T05:38:49;20.20;;;10.70;;
75512;SDS011;64090;49.770;18.760;2023-02-13T05:41:56;20.70;;;10.20;;
75512;SDS011;64090;49.770;18.760;2023-02-13T05:45:00;13.30;;;6.30;;
75512;SDS011;64090;49.770;18.760;2023-02-13T05:48:04;19.60;;;9.30;;
75512;SDS011;64090;49.770;18.760;2023-02-13T05:51:28;20.40;;;8.80;;
75512;SDS011;64090;49.770;18.760;2023-02-13T05:54:37;18.60;;;8.50;;
75512;SDS011;64090;49.770;18.760;2023-02-13T05:57:54;18.50;;;9.90;;
75512;SDS011;64090;49.770;18.760;2023-02-13T06:01:00;13.70;;;6.50;;
75512;SDS011;64090;49.770;18.760;2023-02-13T06:04:04;21.10;;;10.30;;
75512;SDS011;64090;49.770;18.760;2023-02-13T06:07:08;18.60;;;10.40;;
75512;SDS011;64090;49.770;18.760;2023-02-13T06:10:19;17.10;;;9.10;;
75512;SDS011;64090;49.770;18.760;2023-02-13T06:13:22;19.10;;;9.20;;
75512;SDS011;64090;49.770;18.760;2023-02-13T06:16:26;20.10;;;9.80;;
75512;SDS011;64090;49.770;18.760;2023-02-13T06:19:29;17.70;;;8.90;;
75512;SDS011;64090;49.770;18.760;2023-02-13T06:22:33;15.10;;;7.50;;
75512;SDS011;64090;49.770;18.760;2023-02-13T06:25:36;17.40;;;6.90;;
75512;SDS011;64090;49.770;18.760;2023-02-13T06:28:40;15.50;;;7.20;;
75512;SDS011;64090;49.770;18.760;2023-02-13T06:31:43;18.20;;;7.20;;
75512;SDS011;64090;49.770;18.760;2023-02-13T06:34:46;15.60;;;7.20;;
75512;SDS011;64090;49.770;18.760;2023-02-13T06:37:49;17.40;;;6.80;;
75512;SDS011;64090;49.770;18.760;2023-02-13T06:40:57;15.50;;;7.00;;
75512;SDS011;64090;49.770;18.760;2023-02-13T06:44:03;12.70;;;7.30;;
75512;SDS011;64090;49.770;18.760;2023-02-13T06:47:07;16.20;;;6.40;;
75512;SDS011;64090;49.770;18.760;2023-02-13T06:50:11;14.20;;;6.70;;
75512;SDS011;64090;49.770;18.760;2023-02-13T06:53:19;10.10;;;5.10;;
75512;SDS011;64090;49.770;18.760;2023-02-13T06:56:26;13.40;;;6.20;;
75512;SDS011;64090;49.770;18.760;2023-02-13T06:59:30;11.60;;;7.00;;
75512;SDS011;64090;49.770;18.760;2023-02-13T07:02:36;12.80;;;5.80;;
75512;SDS011;64090;49.770;18.760;2023-02-13T07:05:39;14.00;;;6.40;;
75512;SDS011;64090;49.770;18.760;2023-02-13T07:08:43;11.90;;;5.40;;
75512;SDS011;64090;49.770;18.760;2023-02-13T07:11:47;11.20;;;6.10;;
75512;SDS011;64090;49.770;18.760;2023-02-13T07:14:50;11.40;;;7.70;;
75512;SDS011;64090;49.770;18.760;2023-02-13T07:17:54;13.00;;;9.60;;
75512;SDS011;64090;49.770;18.760;2023-02-13T07:21:01;13.20;;;8.30;;
75512;SDS011;64090;49.770;18.760;2023-02-13T07:24:04;13.40;;;7.80;;
75512;SDS011;64090;49.770;18.760;2023-02-13T07:27:09;14.90;;;9.50;;
75512;SDS011;64090;49.770;18.760;2023-02-13T07:30:13;13.70;;;8.30;;
75512;SDS011;64090;49.770;18.760;2023-02-13T07:33:16;16.00;;;9.40;;
75512;SDS011;64090;49.770;18.760;2023-02-13T07:36:20;13.00;;;7.90;;
75512;SDS011;64090;49.770;18.760;2023-02-13T07:39:23;13.30;;;6.80;;
75512;SDS011;64090;49.770;18.760;2023-02-13T07:42:26;9.80;;;5.60;;
75512;SDS011;64090;49.770;18.760;2023-02-13T07:45:29;12.80;;;6.10;;
75512;SDS011;64090;49.770;18.760;2023-02-13T07:48:33;8.20;;;4.80;;
75512;SDS011;64090;49.770;18.760;2023-02-13T07:51:36;11.00;;;5.70;;
75512;SDS011;64090;49.770;18.760;2023-02-13T07:54:39;11.00;;;5.20;;
75512;SDS011;64090;49.770;18.760;2023-02-13T07:57:49;8.50;;;4.30;;
75512;SDS011;64090;49.770;18.760;2023-02-13T08:00:52;9.50;;;4.30;;
75512;SDS011;64090;49.770;18.760;2023-02-13T08:03:56;11.70;;;7.90;;
75512;SDS011;64090;49.770;18.760;2023-02-13T08:06:59;14.10;;;7.70;;
75512;SDS011;64090;49.770;18.760;2023-02-13T08:10:04;16.50;;;7.50;;
75512;SDS011;64090;49.770;18.760;2023-02-13T08:13:27;15.20;;;8.30;;
75512;SDS011;64090;49.770;18.760;2023-02-13T08:16:31;13.40;;;6.30;;
75512;SDS011;64090;49.770;18.760;2023-02-13T08:19:34;12.80;;;5.30;;
75512;SDS011;64090;49.770;18.760;2023-02-13T08:22:38;11.40;;;6.00;;
75512;SDS011;64090;49.770;18.760;2023-02-13T08:25:41;10.10;;;5.00;;
75512;SDS011;64090;49.770;18.760;2023-02-13T08:28:44;11.30;;;5.50;;
75512;SDS011;64090;49.770;18.760;2023-02-13T08:31:47;9.60;;;5.40;;
75512;SDS011;64090;49.770;18.760;2023-02-13T08:34:51;11.00;;;4.70;;
75512;SDS011;64090;49.770;18.760;2023-02-13T08:37:54;8.10;;;3.80;;
75512;SDS011;64090;49.770;18.760;2023-02-13T08:40:58;10.10;;;5.60;;
75512;SDS011;64090;49.770;18.760;2023-02-13T08:44:01;17.30;;;8.20;;
75512;SDS011;64090;49.770;18.760;2023-02-13T08:47:04;12.90;;;6.60;;
75512;SDS011;64090;49.770;18.760;2023-02-13T08:50:08;11.30;;;6.70;;
75512;SDS011;64090;49.770;18.760;2023-02-13T08:53:11;9.20;;;5.20;;
75512;SDS011;64090;49.770;18.760;2023-02-13T08:56:14;9.00;;;4.60;;
75512;SDS011;64090;49.770;18.760;2023-02-13T08:59:18;10.60;;;6.00;;
75512;SDS011;64090;49.770;18.760;2023-02-13T09:02:21;10.30;;;5.30;;
75512;SDS011;64090;49.770;18.760;2023-02-13T09:05:24;10.30;;;5.80;;
75512;SDS011;64090;49.770;18.760;2023-02-13T09:08:27;9.50;;;6.20;;
75512;SDS011;64090;49.770;18.760;2023-02-13T09:11:30;10.20;;;7.70;;
75512;SDS011;64090;49.770;18.760;2023-02-13T09:14:33;10.60;;;6.20;;
75512;SDS011;64090;49.770;18.760;2023-02-13T09:17:36;13.90;;;9.00;;
75512;SDS011;64090;49.770;18.760;2023-02-13T09:20:39;11.70;;;6.00;;
75512;SDS011;64090;49.770;18.760;2023-02-13T09:23:42;11.00;;;5.30;;
75512;SDS011;64090;49.770;18.760;2023-02-13T09:26:44;6.50;;;4.20;;
75512;SDS011;64090;49.770;18.760;2023-02-13T09:29:47;14.70;;;9.60;;
75512;SDS011;64090;49.770;18.760;2023-02-13T09:32:51;9.40;;;4.70;;
75512;SDS011;64090;49.770;18.760;2023-02-13T09:35:55;16.90;;;9.60;;
75512;SDS011;64090;49.770;18.760;2023-02-13T09:38:58;16.40;;;10.90;;
75512;SDS011;64090;49.770;18.760;2023-02-13T09:42:14;12.30;;;7.90;;
75512;SDS011;64090;49.770;18.760;2023-02-13T09:45:22;11.00;;;7.70;;
75512;SDS011;64090;49.770;18.760;2023-02-13T09:48:27;14.70;;;8.30;;
75512;SDS011;64090;49.770;18.760;2023-02-13T09:51:32;15.50;;;9.80;;
75512;SDS011;64090;49.770;18.760;2023-02-13T09:54:35;14.20;;;8.40;;
75512;SDS011;64090;49.770;18.760;2023-02-13T09:57:39;13.50;;;7.60;;
75512;SDS011;64090;49.770;18.760;2023-02-13T10:00:55;17.50;;;9.90;;
75512;SDS011;64090;49.770;18.760;2023-02-13T10:11:10;10.30;;;6.30;;
75512;SDS011;64090;49.770;18.760;2023-02-13T10:14:16;11.30;;;6.50;;
75512;SDS011;64090;49.770;18.760;2023-02-13T10:17:33;18.60;;;9.50;;
75512;SDS011;64090;49.770;18.760;2023-02-13T10:23:48;36.30;;;12.20;;
75512;SDS011;64090;49.770;18.760;2023-02-13T10:26:57;17.70;;;9.20;;
75512;SDS011;64090;49.770;18.760;2023-02-13T10:30:06;11.30;;;5.70;;
75512;SDS011;64090;49.770;18.760;2023-02-13T10:33:19;19.30;;;10.00;;
75512;SDS011;64090;49.770;18.760;2023-02-13T10:36:32;10.50;;;5.20;;
75512;SDS011;64090;49.770;18.760;2023-02-13T10:39:39;15.80;;;7.20;;
75512;SDS011;64090;49.770;18.760;2023-02-13T10:42:44;11.20;;;6.60;;
75512;SDS011;64090;49.770;18.760;2023-02-13T10:46:09;10.60;;;4.90;;
75512;SDS011;64090;49.770;18.760;2023-02-13T11:02:54;5.40;;;2.50;;
75512;SDS011;64090;49.770;18.760;2023-02-13T11:05:58;5.50;;;3.20;;
75512;SDS011;64090;49.770;18.760;2023-02-13T11:09:06;6.00;;;2.60;;
75512;SDS011;64090;49.770;18.760;2023-02-13T11:15:30;11.80;;;6.80;;
75512;SDS011;64090;49.770;18.760;2023-02-13T11:18:37;8.60;;;3.80;;
75512;SDS011;64090;49.770;18.760;2023-02-13T11:21:42;11.10;;;5.00;;
75512;SDS011;64090;49.770;18.760;2023-02-13T11:24:58;6.80;;;4.20;;
75512;SDS011;64090;49.770;18.760;2023-02-13T11:28:09;15.20;;;7.40;;
75512;SDS011;64090;49.770;18.760;2023-02-13T11:31:26;13.20;;;6.60;;
75512;SDS011;64090;49.770;18.760;2023-02-13T11:34:32;15.70;;;7.70;;
75512;SDS011;64090;49.770;18.760;2023-02-13T11:37:35;7.80;;;3.70;;
75512;SDS011;64090;49.770;18.760;2023-02-13T11:40:39;10.80;;;6.30;;
75512;SDS011;64090;49.770;18.760;2023-02-13T11:47:41;12.80;;;7.00;;
75512;SDS011;64090;49.770;18.760;2023-02-13T11:50:44;10.80;;;5.60;;
75512;SDS011;64090;49.770;18.760;2023-02-13T11:53:53;10.60;;;5.60;;
75512;SDS011;64090;49.770;18.760;2023-02-13T11:57:02;8.00;;;5.00;;
75512;SDS011;64090;49.770;18.760;2023-02-13T12:03:39;6.20;;;3.10;;
75512;SDS011;64090;49.770;18.760;2023-02-13T12:10:17;5.30;;;3.20;;
75512;SDS011;64090;49.770;18.760;2023-02-13T12:13:25;5.20;;;3.00;;
75512;SDS011;64090;49.770;18.760;2023-02-13T12:16:39;5.90;;;3.30;;
75512;SDS011;64090;49.770;18.760;2023-02-13T12:19:53;6.40;;;4.40;;
75512;SDS011;64090;49.770;18.760;2023-02-13T12:23:00;5.80;;;3.90;;
75512;SDS011;64090;49.770;18.760;2023-02-13T12:40:02;8.20;;;4.70;;
75512;SDS011;64090;49.770;18.760;2023-02-13T12:47:09;11.40;;;5.50;;
75512;SDS011;64090;49.770;18.760;2023-02-13T12:54:13;11.40;;;5.40;;
75512;SDS011;64090;49.770;18.760;2023-02-13T13:01:25;11.40;;;6.20;;
75512;SDS011;64090;49.770;18.760;2023-02-13T13:08:09;14.70;;;7.30;;
75512;SDS011;64090;49.770;18.760;2023-02-13T13:15:10;17.20;;;10.10;;
75512;SDS011;64090;49.770;18.760;2023-02-13T13:18:28;28.20;;;17.80;;
75512;SDS011;64090;49.770;18.760;2023-02-13T13:22:00;20.90;;;12.90;;
75512;SDS011;64090;49.770;18.760;2023-02-13T13:25:19;18.50;;;12.70;;
75512;SDS011;64090;49.770;18.760;2023-02-13T13:28:31;21.70;;;12.70;;
75512;SDS011;64090;49.770;18.760;2023-02-13T13:31:39;17.90;;;9.70;;
75512;SDS011;64090;49.770;18.760;2023-02-13T13:34:43;15.80;;;8.60;;
75512;SDS011;64090;49.770;18.760;2023-02-13T13:37:50;12.30;;;6.40;;
75512;SDS011;64090;49.770;18.760;2023-02-13T13:41:13;12.60;;;6.80;;
75512;SDS011;64090;49.770;18.760;2023-02-13T13:48:00;15.10;;;7.80;;
75512;SDS011;64090;49.770;18.760;2023-02-13T13:51:25;24.60;;;12.70;;
75512;SDS011;64090;49.770;18.760;2023-02-13T13:54:32;20.80;;;12.10;;
75512;SDS011;64090;49.770;18.760;2023-02-13T14:00:43;11.20;;;7.20;;
75512;SDS011;64090;49.770;18.760;2023-02-13T14:03:46;11.50;;;6.80;;
75512;SDS011;64090;49.770;18.760;2023-02-13T14:09:53;13.10;;;7.30;;
75512;SDS011;64090;49.770;18.760;2023-02-13T14:16:00;10.20;;;6.50;;
75512;SDS011;64090;49.770;18.760;2023-02-13T14:19:05;20.00;;;9.10;;
75512;SDS011;64090;49.770;18.760;2023-02-13T14:22:25;20.10;;;7.60;;
75512;SDS011;64090;49.770;18.760;2023-02-13T14:26:24;10.30;;;4.90;;
75512;SDS011;64090;49.770;18.760;2023-02-13T14:29:53;16.30;;;8.50;;
75512;SDS011;64090;49.770;18.760;2023-02-13T14:32:59;8.00;;;3.80;;
75512;SDS011;64090;49.770;18.760;2023-02-13T14:36:17;9.90;;;6.60;;
75512;SDS011;64090;49.770;18.760;2023-02-13T14:39:27;11.50;;;6.70;;
75512;SDS011;64090;49.770;18.760;2023-02-13T14:42:37;13.10;;;7.50;;
75512;SDS011;64090;49.770;18.760;2023-02-13T14:45:46;13.50;;;7.40;;
75512;SDS011;64090;49.770;18.760;2023-02-13T14:48:59;16.10;;;9.70;;
75512;SDS011;64090;49.770;18.760;2023-02-13T14:52:07;14.20;;;9.70;;
75512;SDS011;64090;49.770;18.760;2023-02-13T14:55:32;17.50;;;10.70;;
75512;SDS011;64090;49.770;18.760;2023-02-13T15:02:22;32.30;;;19.70;;
75512;SDS011;64090;49.770;18.760;2023-02-13T15:05:30;46.40;;;28.40;;
75512;SDS011;64090;49.770;18.760;2023-02-13T15:08:50;30.20;;;21.60;;
75512;SDS011;64090;49.770;18.760;2023-02-13T15:12:55;29.30;;;18.30;;
75512;SDS011;64090;49.770;18.760;2023-02-13T15:24:48;31.50;;;14.20;;
75512;SDS011;64090;49.770;18.760;2023-02-13T15:27:52;22.60;;;12.00;;
75512;SDS011;64090;49.770;18.760;2023-02-13T15:30:58;20.60;;;9.70;;
75512;SDS011;64090;49.770;18.760;2023-02-13T15:34:17;19.00;;;9.20;;
75512;SDS011;64090;49.770;18.760;2023-02-13T15:37:24;13.00;;;7.50;;
75512;SDS011;64090;49.770;18.760;2023-02-13T15:40:32;24.60;;;14.00;;
75512;SDS011;64090;49.770;18.760;2023-02-13T15:44:36;46.90;;;23.90;;
75512;SDS011;64090;49.770;18.760;2023-02-13T15:48:18;76.60;;;32.20;;
75512;SDS011;64090;49.770;18.760;2023-02-13T15:51:24;74.80;;;30.70;;
75512;SDS011;64090;49.770;18.760;2023-02-13T15:54:34;72.60;;;28.60;;
75512;SDS011;64090;49.770;18.760;2023-02-13T15:57:39;57.60;;;23.50;;
75512;SDS011;64090;49.770;18.760;2023-02-13T16:00:43;17.30;;;7.20;;
75512;SDS011;64090;49.770;18.760;2023-02-13T16:04:39;64.80;;;26.60;;
75512;SDS011;64090;49.770;18.760;2023-02-13T16:08:33;40.10;;;17.20;;
75512;SDS011;64090;49.770;18.760;2023-02-13T16:12:06;46.50;;;18.90;;
75512;SDS011;64090;49.770;18.760;2023-02-13T16:15:30;45.00;;;19.20;;
75512;SDS011;64090;49.770;18.760;2023-02-13T16:23:06;23.20;;;10.70;;
75512;SDS011;64090;49.770;18.760;2023-02-13T16:26:19;17.30;;;9.30;;
75512;SDS011;64090;49.770;18.760;2023-02-13T16:29:24;29.70;;;17.90;;
75512;SDS011;64090;49.770;18.760;2023-02-13T16:36:27;31.00;;;15.80;;
75512;SDS011;64090;49.770;18.760;2023-02-13T16:47:01;21.90;;;13.80;;
75512;SDS011;64090;49.770;18.760;2023-02-13T16:50:38;20.50;;;12.30;;
75512;SDS011;64090;49.770;18.760;2023-02-13T16:57:31;19.20;;;12.10;;
75512;SDS011;64090;49.770;18.760;2023-02-13T17:00:52;31.00;;;19.90;;
75512;SDS011;64090;49.770;18.760;2023-02-13T17:04:18;29.30;;;17.90;;
75512;SDS011;64090;49.770;18.760;2023-02-13T17:08:04;23.80;;;15.60;;
75512;SDS011;64090;49.770;18.760;2023-02-13T17:11:48;19.20;;;12.10;;
75512;SDS011;64090;49.770;18.760;2023-02-13T17:14:58;22.70;;;12.40;;
75512;SDS011;64090;49.770;18.760;2023-02-13T17:18:01;13.70;;;7.60;;
75512;SDS011;64090;49.770;18.760;2023-02-13T17:21:05;21.20;;;12.50;;
75512;SDS011;64090;49.770;18.760;2023-02-13T17:24:09;24.80;;;16.80;;
75512;SDS011;64090;49.770;18.760;2023-02-13T17:27:19;25.80;;;17.40;;
75512;SDS011;64090;49.770;18.760;2023-02-13T17:30:25;27.40;;;17.10;;
75512;SDS011;64090;49.770;18.760;2023-02-13T17:33:31;24.10;;;15.70;;
75512;SDS011;64090;49.770;18.760;2023-02-13T17:36:37;22.00;;;13.50;;
75512;SDS011;64090;49.770;18.760;2023-02-13T17:39:39;23.20;;;15.40;;
75512;SDS011;64090;49.770;18.760;2023-02-13T17:42:43;28.40;;;15.60;;
75512;SDS011;64090;49.770;18.760;2023-02-13T17:45:48;23.70;;;14.10;;
75512;SDS011;64090;49.770;18.760;2023-02-13T17:48:51;23.60;;;15.40;;
75512;SDS011;64090;49.770;18.760;2023-02-13T17:51:54;23.10;;;17.50;;
75512;SDS011;64090;49.770;18.760;2023-02-13T17:54:57;26.50;;;18.50;;
75512;SDS011;64090;49.770;18.760;2023-02-13T17:58:00;19.30;;;13.80;;
75512;SDS011;64090;49.770;18.760;2023-02-13T18:01:04;19.70;;;12.30;;
75512;SDS011;64090;49.770;18.760;2023-02-13T18:04:07;23.40;;;17.90;;
75512;SDS011;64090;49.770;18.760;2023-02-13T18:07:11;26.00;;;16.50;;
75512;SDS011;64090;49.770;18.760;2023-02-13T18:10:20;25.10;;;15.20;;
75512;SDS011;64090;49.770;18.760;2023-02-13T18:13:25;23.00;;;13.20;;
75512;SDS011;64090;49.770;18.760;2023-02-13T18:16:28;29.50;;;17.80;;
75512;SDS011;64090;49.770;18.760;2023-02-13T18:19:32;29.70;;;17.80;;
75512;SDS011;64090;49.770;18.760;2023-02-13T18:22:35;43.10;;;24.90;;
75512;SDS011;64090;49.770;18.760;2023-02-13T18:25:38;44.10;;;23.10;;
75512;SDS011;64090;49.770;18.760;2023-02-13T18:28:41;40.30;;;20.20;;
75512;SDS011;64090;49.770;18.760;2023-02-13T18:31:44;32.90;;;18.90;;
75512;SDS011;64090;49.770;18.760;2023-02-13T18:34:47;38.60;;;20.30;;
75512;SDS011;64090;49.770;18.760;2023-02-13T18:37:51;40.20;;;21.10;;
75512;SDS011;64090;49.770;18.760;2023-02-13T18:40:54;37.10;;;23.50;;
75512;SDS011;64090;49.770;18.760;2023-02-13T18:43:58;38.30;;;21.50;;
75512;SDS011;64090;49.770;18.760;2023-02-13T18:47:01;33.00;;;18.10;;
75512;SDS011;64090;49.770;18.760;2023-02-13T18:50:04;38.10;;;21.10;;
75512;SDS011;64090;49.770;18.760;2023-02-13T18:53:08;37.90;;;19.80;;
75512;SDS011;64090;49.770;18.760;2023-02-13T18:56:11;38.70;;;23.80;;
75512;SDS011;64090;49.770;18.760;2023-02-13T18:59:14;27.70;;;15.70;;
75512;SDS011;64090;49.770;18.760;2023-02-13T19:02:17;20.90;;;12.20;;
75512;SDS011;64090;49.770;18.760;2023-02-13T19:05:21;20.90;;;15.20;;
75512;SDS011;64090;49.770;18.760;2023-02-13T19:08:24;20.30;;;11.90;;
75512;SDS011;64090;49.770;18.760;2023-02-13T19:11:56;24.00;;;15.20;;
75512;SDS011;64090;49.770;18.760;2023-02-13T19:15:24;20.90;;;12.80;;
75512;SDS011;64090;49.770;18.760;2023-02-13T19:18:47;20.00;;;11.90;;
75512;SDS011;64090;49.770;18.760;2023-02-13T19:22:12;21.30;;;12.60;;
75512;SDS011;64090;49.770;18.760;2023-02-13T19:25:37;22.60;;;14.40;;
75512;SDS011;64090;49.770;18.760;2023-02-13T19:28:43;22.40;;;13.50;;
75512;SDS011;64090;49.770;18.760;2023-02-13T19:32:08;23.30;;;13.50;;
75512;SDS011;64090;49.770;18.760;2023-02-13T19:35:15;22.20;;;13.30;;
75512;SDS011;64090;49.770;18.760;2023-02-13T19:38:18;22.40;;;13.90;;
75512;SDS011;64090;49.770;18.760;2023-02-13T19:41:24;22.20;;;12.10;;
75512;SDS011;64090;49.770;18.760;2023-02-13T19:44:28;18.70;;;12.20;;
75512;SDS011;64090;49.770;18.760;2023-02-13T19:47:32;21.20;;;12.00;;
75512;SDS011;64090;49.770;18.760;2023-02-13T19:50:36;21.10;;;11.90;;
75512;SDS011;64090;49.770;18.760;2023-02-13T19:53:42;23.50;;;12.50;;
75512;SDS011;64090;49.770;18.760;2023-02-13T19:56:46;24.10;;;15.50;;
75512;SDS011;64090;49.770;18.760;2023-02-13T19:59:50;30.30;;;17.80;;
75512;SDS011;64090;49.770;18.760;2023-02-13T20:03:04;38.50;;;23.90;;
75512;SDS011;64090;49.770;18.760;2023-02-13T20:06:15;40.60;;;21.60;;
75512;SDS011;64090;49.770;18.760;2023-02-13T20:09:38;33.90;;;20.90;;
75512;SDS011;64090;49.770;18.760;2023-02-13T20:13:02;35.10;;;22.10;;
75512;SDS011;64090;49.770;18.760;2023-02-13T20:16:14;34.20;;;21.30;;
75512;SDS011;64090;49.770;18.760;2023-02-13T20:19:57;39.50;;;25.50;;
75512;SDS011;64090;49.770;18.760;2023-02-13T20:23:01;36.80;;;22.90;;
75512;SDS011;64090;49.770;18.760;2023-02-13T20:26:07;45.40;;;27.50;;
75512;SDS011;64090;49.770;18.760;2023-02-13T20:29:15;52.40;;;30.10;;
75512;SDS011;64090;49.770;18.760;2023-02-13T20:32:19;58.60;;;35.90;;
75512;SDS011;64090;49.770;18.760;2023-02-13T20:35:33;55.50;;;33.80;;
75512;SDS011;64090;49.770;18.760;2023-02-13T20:38:37;48.10;;;28.00;;
75512;SDS011;64090;49.770;18.760;2023-02-13T20:41:41;43.60;;;23.30;;
75512;SDS011;64090;49.770;18.760;2023-02-13T20:44:50;34.30;;;20.80;;